This is the latest recevied weather packets stored in our database for station/object AE5TC. If no packets are shown the sender has not sent any weather packets the latest 10 day(s).
| Time | Temp. | Humidity | Pressure | Rain* | Wind** | Luminosity | Snow |
|---|---|---|---|---|---|---|---|
| 1777606427 | 21.11° C | 99% | 1011.6 hPa | 0 mm | - | 0 W/m² | - |
| 1777606122 | 20.56° C | 99% | 1011.7 hPa | 0 mm | - | 0 W/m² | - |
| 1777605819 | 21.11° C | 99% | 1011.5 hPa | 0 mm | - | 0 W/m² | - |
| 1777605518 | 21.11° C | 99% | 1011.7 hPa | 0 mm | - | 0 W/m² | - |
| 1777605214 | 21.11° C | 99% | 1011.7 hPa | 0 mm | - | 0 W/m² | - |
| 1777604911 | 21.11° C | 99% | 1011.6 hPa | 0 mm | - | 0 W/m² | - |
| 1777604606 | 21.11° C | 98% | 1011.6 hPa | 0 mm | - | 0 W/m² | - |
| 1777604303 | 21.67° C | 98% | 1011.6 hPa | 0 mm | - | 0 W/m² | - |
| 1777603998 | 21.67° C | 98% | 1011.5 hPa | 0 mm | - | 0 W/m² | - |
| 1777603695 | 21.67° C | 97% | 1011.7 hPa | 0 mm | - | 0 W/m² | - |
| 1777603386 | 21.67° C | 97% | 1011.6 hPa | 0 mm | - | 0 W/m² | - |
| 1777603082 | 22.22° C | 96% | 1011.5 hPa | 0 mm | - | 0 W/m² | - |
| 1777602776 | 22.22° C | 96% | 1011.5 hPa | 0 mm | - | 0 W/m² | - |
| 1777602472 | 22.22° C | 95% | 1011.3 hPa | 0 mm | - | 0 W/m² | - |
| 1777602168 | 22.78° C | 94% | 1011.5 hPa | 0 mm | - | 0 W/m² | - |
| 1777601868 | 22.78° C | 95% | 1011.5 hPa | 0 mm | - | 0 W/m² | - |
| 1777601564 | 22.78° C | 94% | 1011.6 hPa | 0 mm | - | 0 W/m² | - |
| 1777600653 | 22.22° C | 96% | 1011.1 hPa | 0 mm | - | 0 W/m² | - |
| 1777586384 | 24.44° C | 87% | 1009.5 hPa | 0 mm | - | 64 W/m² | - |
| 1777586084 | 25° C | 86% | 1009.7 hPa | 0 mm | - | 76 W/m² | - |
| 1777584868 | 25° C | 85% | 1009.7 hPa | 0 mm | - | 124 W/m² | - |
| 1777584566 | 25° C | 84% | 1009.7 hPa | 0 mm | - | 107 W/m² | - |
| 1777583957 | 25° C | 84% | 1009.8 hPa | 0 mm | - | 111 W/m² | - |
| 1777583653 | 25° C | 85% | 1009.8 hPa | 0 mm | - | 125 W/m² | - |
| 1777582439 | 25° C | 84% | 1009.6 hPa | 0 mm | - | 115 W/m² | - |
* Rain latest hour (hover to see other rain measurements)
** Current wind speed in m/s (hover to see current wind gust speed)